createdAt,value
2023-03-26T00:06:25.615Z,30.50
2023-03-26T00:10:25.852Z,30.57
2023-03-26T00:14:26.074Z,30.53
2023-03-26T00:18:26.259Z,30.58
2023-03-26T00:22:26.485Z,30.56
2023-03-26T00:26:26.661Z,30.57
2023-03-26T00:30:26.909Z,30.54
2023-03-26T00:34:27.130Z,30.55
2023-03-26T00:38:27.367Z,30.50
2023-03-26T00:42:27.323Z,30.57
2023-03-26T00:46:27.300Z,30.58
2023-03-26T00:50:27.226Z,30.58
2023-03-26T05:02:26.342Z,30.63
2023-03-26T05:06:26.198Z,30.63
2023-03-26T05:14:26.270Z,30.63
2023-03-26T05:18:26.228Z,30.60
2023-03-26T05:22:26.205Z,30.63
2023-03-26T05:26:26.171Z,30.63
2023-03-26T05:30:26.077Z,30.59
2023-03-26T05:34:26.083Z,30.57
2023-03-26T05:38:26.066Z,30.58
2023-03-26T05:42:26.044Z,30.60
2023-03-26T05:46:26.009Z,30.62
2023-03-26T05:50:25.948Z,30.60
2023-03-26T05:54:26.073Z,30.57
2023-03-26T05:58:26.099Z,30.54
2023-03-26T06:02:26.098Z,30.60
2023-03-26T06:06:25.973Z,30.52
2023-03-26T06:10:25.948Z,30.57
2023-03-26T06:14:25.961Z,30.57
2023-03-26T06:18:25.899Z,30.56
2023-03-26T06:22:25.829Z,30.47
2023-03-26T06:26:25.855Z,30.50
2023-03-26T06:30:25.822Z,30.50
2023-03-26T06:34:25.785Z,30.52
2023-03-26T06:38:25.786Z,30.47
2023-03-26T06:43:06.957Z,30.48
2023-03-26T06:46:26.767Z,30.42
2023-03-26T06:50:25.659Z,30.44
2023-03-26T06:54:25.673Z,30.45
2023-03-26T06:58:25.587Z,30.44
2023-03-26T07:02:25.548Z,30.39
2023-03-26T07:06:25.500Z,30.41
2023-03-26T07:10:25.483Z,30.36
2023-03-26T07:14:25.504Z,30.33
2023-03-26T07:18:25.427Z,30.29
2023-03-26T07:22:25.398Z,30.24
2023-03-26T07:26:25.312Z,30.17
2023-03-26T07:30:25.308Z,30.20
2023-03-26T07:34:25.474Z,30.17
2023-03-26T07:38:25.724Z,30.17
2023-03-26T07:42:25.954Z,30.28
2023-03-26T07:46:25.929Z,30.22
2023-03-26T07:50:25.851Z,30.21
2023-03-26T07:54:25.792Z,30.17
2023-03-26T07:58:25.801Z,30.15
2023-03-26T08:02:25.806Z,30.13
2023-03-26T08:06:25.698Z,30.08
2023-03-26T08:10:25.667Z,30.01
2023-03-26T08:14:25.617Z,30.05
2023-03-26T08:18:25.572Z,30.08
2023-03-26T08:22:25.558Z,30.13
2023-03-26T08:26:25.671Z,30.09
2023-03-26T08:30:25.861Z,30.14
2023-03-26T08:34:26.090Z,30.11
2023-03-26T08:38:26.301Z,30.08
2023-03-26T08:42:26.429Z,30.03
2023-03-26T08:46:26.606Z,30.04
2023-03-26T08:50:26.775Z,30.08
2023-03-26T08:54:26.937Z,30.09
2023-03-26T08:58:27.223Z,30.09
2023-03-26T09:02:27.351Z,29.98
2023-03-26T09:06:27.449Z,30.04
2023-03-26T09:10:27.638Z,30.03
2023-03-26T09:14:27.770Z,30.05
2023-03-26T09:18:27.974Z,30.14
2023-03-26T09:22:28.099Z,30.13
2023-03-26T09:26:28.222Z,30.15
2023-03-26T09:30:28.430Z,30.17
2023-03-26T09:34:28.555Z,30.16
2023-03-26T09:38:28.704Z,30.16
2023-03-26T09:42:28.818Z,30.15
2023-03-26T09:46:29.130Z,30.11
2023-03-26T10:06:29.565Z,30.01
2023-03-26T10:38:30.381Z,30.06
2023-03-26T10:42:30.399Z,30.10
2023-03-26T10:46:30.547Z,30.12
2023-03-26T10:50:30.616Z,30.10
2023-03-26T10:54:30.742Z,30.17
2023-03-26T10:58:48.373Z,30.18
2023-03-26T11:06:30.775Z,30.15
2023-03-26T11:10:30.675Z,30.13
2023-03-26T11:14:34.942Z,30.12
2023-03-26T11:18:30.612Z,30.05
2023-03-26T11:22:30.566Z,30.04
2023-03-26T11:26:30.590Z,30.03
2023-03-26T11:30:30.529Z,30.06
2023-03-26T11:34:30.461Z,30.06
2023-03-26T11:38:30.467Z,30.04
2023-03-26T11:42:30.415Z,30.03
2023-03-26T11:46:33.144Z,30.02
2023-03-26T11:50:30.339Z,29.99
2023-03-26T11:54:30.398Z,29.99
2023-03-26T11:58:30.296Z,30.06
2023-03-26T12:02:30.263Z,30.06
2023-03-26T12:06:30.160Z,30.09
2023-03-26T12:10:30.132Z,30.15
2023-03-26T12:14:30.101Z,30.17
2023-03-26T12:18:30.065Z,30.19
2023-03-26T12:22:30.043Z,30.20
2023-03-26T12:26:29.974Z,30.24
2023-03-26T12:30:29.940Z,30.26
2023-03-26T12:34:29.917Z,30.28
2023-03-26T12:38:29.865Z,30.28
2023-03-26T12:44:48.365Z,30.33
2023-03-26T12:50:34.532Z,30.39
2023-03-26T12:58:29.702Z,30.37
2023-03-26T13:02:29.765Z,30.44
2023-03-26T13:06:29.620Z,30.40
2023-03-26T13:10:29.576Z,30.44
2023-03-26T13:14:29.585Z,30.46
2023-03-26T13:18:29.680Z,30.48
2023-03-26T13:22:29.740Z,30.51
2023-03-26T13:26:29.832Z,30.51
2023-03-26T13:30:29.933Z,30.49
2023-03-26T13:34:30.037Z,30.60
2023-03-26T13:38:30.128Z,30.58
2023-03-26T13:42:30.193Z,30.56
2023-03-26T13:46:30.362Z,30.57
2023-03-26T13:50:30.448Z,30.61
2023-03-26T13:54:30.573Z,30.63
2023-03-26T19:46:53.734Z,30.98
2023-03-26T20:10:38.342Z,30.97
2023-03-26T20:50:44.849Z,30.93
2023-03-26T20:54:39.283Z,30.93
2023-03-26T20:58:38.288Z,30.92
2023-03-26T21:02:38.903Z,30.92
2023-03-26T21:26:41.654Z,30.98
